sensor_id;sensor_type;location;lat;lon;timestamp;P1;durP1;ratioP1;P2;durP2;ratioP2
40591;SDS011;26301;42.832;23.918;2023-08-17T00:01:56;15.98;;;13.88;;
40591;SDS011;26301;42.832;23.918;2023-08-17T00:04:22;14.65;;;13.18;;
40591;SDS011;26301;42.832;23.918;2023-08-17T00:06:48;14.68;;;13.15;;
40591;SDS011;26301;42.832;23.918;2023-08-17T00:09:13;15.52;;;13.48;;
40591;SDS011;26301;42.832;23.918;2023-08-17T00:11:39;15.77;;;13.45;;
40591;SDS011;26301;42.832;23.918;2023-08-17T00:14:05;14.75;;;13.30;;
40591;SDS011;26301;42.832;23.918;2023-08-17T00:16:31;14.38;;;13.07;;
40591;SDS011;26301;42.832;23.918;2023-08-17T00:18:56;15.68;;;12.95;;
40591;SDS011;26301;42.832;23.918;2023-08-17T00:21:22;16.20;;;13.85;;
40591;SDS011;26301;42.832;23.918;2023-08-17T00:23:49;16.52;;;13.77;;
40591;SDS011;26301;42.832;23.918;2023-08-17T00:26:15;16.13;;;13.23;;
40591;SDS011;26301;42.832;23.918;2023-08-17T00:28:41;16.05;;;13.82;;
40591;SDS011;26301;42.832;23.918;2023-08-17T00:31:07;15.55;;;13.93;;
40591;SDS011;26301;42.832;23.918;2023-08-17T00:33:32;15.50;;;13.57;;
40591;SDS011;26301;42.832;23.918;2023-08-17T00:35:58;14.80;;;13.23;;
40591;SDS011;26301;42.832;23.918;2023-08-17T00:38:24;14.02;;;11.75;;
40591;SDS011;26301;42.832;23.918;2023-08-17T00:40:49;15.40;;;13.15;;
40591;SDS011;26301;42.832;23.918;2023-08-17T00:43:15;15.98;;;13.70;;
40591;SDS011;26301;42.832;23.918;2023-08-17T00:45:41;15.48;;;13.68;;
40591;SDS011;26301;42.832;23.918;2023-08-17T00:48:06;16.70;;;13.35;;
40591;SDS011;26301;42.832;23.918;2023-08-17T00:50:33;15.30;;;13.02;;
40591;SDS011;26301;42.832;23.918;2023-08-17T00:53:09;13.52;;;12.15;;
40591;SDS011;26301;42.832;23.918;2023-08-17T00:55:38;14.02;;;12.55;;
40591;SDS011;26301;42.832;23.918;2023-08-17T00:58:05;17.42;;;13.27;;
40591;SDS011;26301;42.832;23.918;2023-08-17T01:00:31;13.00;;;11.65;;
40591;SDS011;26301;42.832;23.918;2023-08-17T01:02:56;13.80;;;12.20;;
40591;SDS011;26301;42.832;23.918;2023-08-17T01:05:23;13.88;;;12.60;;
40591;SDS011;26301;42.832;23.918;2023-08-17T01:07:48;14.18;;;12.73;;
40591;SDS011;26301;42.832;23.918;2023-08-17T01:10:15;18.27;;;14.13;;
40591;SDS011;26301;42.832;23.918;2023-08-17T01:12:47;16.67;;;12.88;;
40591;SDS011;26301;42.832;23.918;2023-08-17T01:20:19;14.15;;;12.68;;
40591;SDS011;26301;42.832;23.918;2023-08-17T01:22:48;13.20;;;11.80;;
40591;SDS011;26301;42.832;23.918;2023-08-17T01:25:16;15.32;;;12.68;;
40591;SDS011;26301;42.832;23.918;2023-08-17T01:27:43;14.07;;;12.68;;
40591;SDS011;26301;42.832;23.918;2023-08-17T01:30:13;15.07;;;12.73;;
40591;SDS011;26301;42.832;23.918;2023-08-17T01:32:54;19.95;;;12.77;;
40591;SDS011;26301;42.832;23.918;2023-08-17T01:38:37;14.70;;;13.32;;
40591;SDS011;26301;42.832;23.918;2023-08-17T01:41:05;16.20;;;14.52;;
40591;SDS011;26301;42.832;23.918;2023-08-17T01:43:37;16.88;;;14.18;;
40591;SDS011;26301;42.832;23.918;2023-08-17T01:46:06;16.42;;;14.07;;
40591;SDS011;26301;42.832;23.918;2023-08-17T01:48:32;15.23;;;13.63;;
40591;SDS011;26301;42.832;23.918;2023-08-17T01:50:58;15.80;;;14.20;;
40591;SDS011;26301;42.832;23.918;2023-08-17T01:53:25;15.02;;;13.52;;
40591;SDS011;26301;42.832;23.918;2023-08-17T01:55:50;16.40;;;13.63;;
40591;SDS011;26301;42.832;23.918;2023-08-17T01:58:16;16.35;;;13.98;;
40591;SDS011;26301;42.832;23.918;2023-08-17T02:00:42;17.90;;;13.77;;
40591;SDS011;26301;42.832;23.918;2023-08-17T02:03:10;16.50;;;14.13;;
40591;SDS011;26301;42.832;23.918;2023-08-17T02:05:36;19.98;;;13.50;;
40591;SDS011;26301;42.832;23.918;2023-08-17T02:08:02;19.67;;;14.32;;
40591;SDS011;26301;42.832;23.918;2023-08-17T02:10:28;17.85;;;14.32;;
40591;SDS011;26301;42.832;23.918;2023-08-17T02:12:53;15.88;;;14.20;;
40591;SDS011;26301;42.832;23.918;2023-08-17T02:15:19;16.73;;;14.95;;
40591;SDS011;26301;42.832;23.918;2023-08-17T02:17:45;16.92;;;15.32;;
40591;SDS011;26301;42.832;23.918;2023-08-17T02:20:11;16.60;;;14.90;;
40591;SDS011;26301;42.832;23.918;2023-08-17T02:22:36;16.45;;;14.85;;
40591;SDS011;26301;42.832;23.918;2023-08-17T02:25:02;16.83;;;14.73;;
40591;SDS011;26301;42.832;23.918;2023-08-17T02:27:27;16.00;;;14.27;;
40591;SDS011;26301;42.832;23.918;2023-08-17T02:29:56;18.55;;;15.00;;
40591;SDS011;26301;42.832;23.918;2023-08-17T02:32:21;14.05;;;12.65;;
40591;SDS011;26301;42.832;23.918;2023-08-17T02:34:47;15.30;;;13.70;;
40591;SDS011;26301;42.832;23.918;2023-08-17T02:37:13;15.05;;;13.65;;
40591;SDS011;26301;42.832;23.918;2023-08-17T02:39:39;16.90;;;14.48;;
40591;SDS011;26301;42.832;23.918;2023-08-17T02:42:05;17.08;;;13.48;;
40591;SDS011;26301;42.832;23.918;2023-08-17T02:44:31;15.00;;;13.40;;
40591;SDS011;26301;42.832;23.918;2023-08-17T02:46:57;15.82;;;13.82;;
40591;SDS011;26301;42.832;23.918;2023-08-17T02:49:22;15.23;;;13.55;;
40591;SDS011;26301;42.832;23.918;2023-08-17T02:51:48;14.90;;;13.25;;
40591;SDS011;26301;42.832;23.918;2023-08-17T02:54:14;14.55;;;13.00;;
40591;SDS011;26301;42.832;23.918;2023-08-17T02:56:40;13.40;;;11.98;;
40591;SDS011;26301;42.832;23.918;2023-08-17T02:59:06;16.48;;;12.43;;
40591;SDS011;26301;42.832;23.918;2023-08-17T03:01:32;21.67;;;13.73;;
40591;SDS011;26301;42.832;23.918;2023-08-17T03:03:57;17.13;;;12.82;;
40591;SDS011;26301;42.832;23.918;2023-08-17T03:06:23;16.73;;;13.35;;
40591;SDS011;26301;42.832;23.918;2023-08-17T03:08:49;15.75;;;13.10;;
40591;SDS011;26301;42.832;23.918;2023-08-17T03:11:17;14.68;;;13.18;;
40591;SDS011;26301;42.832;23.918;2023-08-17T03:13:43;15.10;;;13.40;;
40591;SDS011;26301;42.832;23.918;2023-08-17T03:16:10;14.05;;;12.55;;
40591;SDS011;26301;42.832;23.918;2023-08-17T03:18:36;14.70;;;13.30;;
40591;SDS011;26301;42.832;23.918;2023-08-17T03:21:02;15.77;;;14.02;;
40591;SDS011;26301;42.832;23.918;2023-08-17T03:23:28;15.38;;;12.85;;
40591;SDS011;26301;42.832;23.918;2023-08-17T03:25:53;18.23;;;13.80;;
40591;SDS011;26301;42.832;23.918;2023-08-17T03:28:19;16.23;;;12.93;;
40591;SDS011;26301;42.832;23.918;2023-08-17T03:30:45;14.15;;;12.63;;
40591;SDS011;26301;42.832;23.918;2023-08-17T03:33:11;13.80;;;12.48;;
40591;SDS011;26301;42.832;23.918;2023-08-17T03:35:36;16.25;;;13.23;;
40591;SDS011;26301;42.832;23.918;2023-08-17T03:38:02;14.65;;;12.98;;
40591;SDS011;26301;42.832;23.918;2023-08-17T03:40:28;14.90;;;13.35;;
40591;SDS011;26301;42.832;23.918;2023-08-17T03:42:53;14.73;;;13.15;;
40591;SDS011;26301;42.832;23.918;2023-08-17T03:45:19;19.27;;;13.35;;
40591;SDS011;26301;42.832;23.918;2023-08-17T03:47:45;14.35;;;12.98;;
40591;SDS011;26301;42.832;23.918;2023-08-17T03:50:11;17.70;;;13.35;;
40591;SDS011;26301;42.832;23.918;2023-08-17T03:52:36;14.55;;;13.05;;
40591;SDS011;26301;42.832;23.918;2023-08-17T03:55:02;15.98;;;12.60;;
40591;SDS011;26301;42.832;23.918;2023-08-17T03:57:30;16.33;;;12.77;;
40591;SDS011;26301;42.832;23.918;2023-08-17T03:59:56;13.55;;;12.15;;
40591;SDS011;26301;42.832;23.918;2023-08-17T04:02:22;16.65;;;12.95;;
40591;SDS011;26301;42.832;23.918;2023-08-17T04:04:47;15.20;;;11.40;;
40591;SDS011;26301;42.832;23.918;2023-08-17T04:07:19;20.63;;;12.90;;
40591;SDS011;26301;42.832;23.918;2023-08-17T04:09:48;13.43;;;12.02;;
40591;SDS011;26301;42.832;23.918;2023-08-17T04:12:14;14.50;;;13.00;;
40591;SDS011;26301;42.832;23.918;2023-08-17T04:14:40;15.25;;;12.73;;
40591;SDS011;26301;42.832;23.918;2023-08-17T04:17:05;15.30;;;13.02;;
40591;SDS011;26301;42.832;23.918;2023-08-17T04:19:32;12.80;;;10.77;;
40591;SDS011;26301;42.832;23.918;2023-08-17T04:21:57;13.95;;;11.05;;
40591;SDS011;26301;42.832;23.918;2023-08-17T04:24:23;19.60;;;11.27;;
40591;SDS011;26301;42.832;23.918;2023-08-17T04:26:49;12.88;;;11.57;;
40591;SDS011;26301;42.832;23.918;2023-08-17T04:29:15;15.10;;;12.90;;
40591;SDS011;26301;42.832;23.918;2023-08-17T04:31:41;12.75;;;11.10;;
40591;SDS011;26301;42.832;23.918;2023-08-17T04:34:07;17.50;;;11.52;;
40591;SDS011;26301;42.832;23.918;2023-08-17T04:36:33;13.77;;;10.93;;
40591;SDS011;26301;42.832;23.918;2023-08-17T04:38:58;12.45;;;11.05;;
40591;SDS011;26301;42.832;23.918;2023-08-17T04:41:25;13.70;;;10.90;;
40591;SDS011;26301;42.832;23.918;2023-08-17T04:43:51;12.90;;;10.63;;
40591;SDS011;26301;42.832;23.918;2023-08-17T04:46:17;12.07;;;10.82;;
40591;SDS011;26301;42.832;23.918;2023-08-17T04:48:45;14.95;;;11.73;;
40591;SDS011;26301;42.832;23.918;2023-08-17T04:51:11;13.20;;;11.80;;
40591;SDS011;26301;42.832;23.918;2023-08-17T04:53:37;13.52;;;11.95;;
40591;SDS011;26301;42.832;23.918;2023-08-17T04:56:03;14.20;;;12.00;;
40591;SDS011;26301;42.832;23.918;2023-08-17T04:58:29;14.93;;;12.43;;
40591;SDS011;26301;42.832;23.918;2023-08-17T05:00:55;13.98;;;12.57;;
40591;SDS011;26301;42.832;23.918;2023-08-17T05:03:21;14.98;;;13.50;;
40591;SDS011;26301;42.832;23.918;2023-08-17T05:05:46;15.70;;;12.98;;
40591;SDS011;26301;42.832;23.918;2023-08-17T05:08:12;15.68;;;14.07;;
40591;SDS011;26301;42.832;23.918;2023-08-17T05:10:40;14.23;;;12.65;;
40591;SDS011;26301;42.832;23.918;2023-08-17T05:13:06;14.25;;;12.95;;
40591;SDS011;26301;42.832;23.918;2023-08-17T05:15:32;15.13;;;13.73;;
40591;SDS011;26301;42.832;23.918;2023-08-17T05:17:58;15.95;;;14.35;;
40591;SDS011;26301;42.832;23.918;2023-08-17T05:20:23;14.80;;;13.30;;
40591;SDS011;26301;42.832;23.918;2023-08-17T05:22:51;16.30;;;13.70;;
40591;SDS011;26301;42.832;23.918;2023-08-17T05:25:17;15.02;;;13.40;;
40591;SDS011;26301;42.832;23.918;2023-08-17T05:27:43;15.35;;;13.77;;
40591;SDS011;26301;42.832;23.918;2023-08-17T05:30:09;15.32;;;13.73;;
40591;SDS011;26301;42.832;23.918;2023-08-17T05:32:35;14.93;;;13.40;;
40591;SDS011;26301;42.832;23.918;2023-08-17T05:35:00;19.45;;;13.25;;
40591;SDS011;26301;42.832;23.918;2023-08-17T05:37:26;16.70;;;14.30;;
40591;SDS011;26301;42.832;23.918;2023-08-17T05:39:52;16.77;;;14.95;;
40591;SDS011;26301;42.832;23.918;2023-08-17T05:42:17;16.65;;;14.85;;
40591;SDS011;26301;42.832;23.918;2023-08-17T05:44:43;16.60;;;14.85;;
40591;SDS011;26301;42.832;23.918;2023-08-17T05:47:09;16.00;;;13.95;;
40591;SDS011;26301;42.832;23.918;2023-08-17T05:49:35;16.92;;;13.32;;
40591;SDS011;26301;42.832;23.918;2023-08-17T05:52:03;14.38;;;12.45;;
40591;SDS011;26301;42.832;23.918;2023-08-17T05:54:29;13.98;;;11.63;;
40591;SDS011;26301;42.832;23.918;2023-08-17T05:56:56;30.98;;;11.80;;
40591;SDS011;26301;42.832;23.918;2023-08-17T05:59:22;16.10;;;10.95;;
40591;SDS011;26301;42.832;23.918;2023-08-17T06:01:48;14.57;;;11.52;;
40591;SDS011;26301;42.832;23.918;2023-08-17T06:04:13;16.35;;;11.20;;
40591;SDS011;26301;42.832;23.918;2023-08-17T06:06:39;13.02;;;10.27;;
40591;SDS011;26301;42.832;23.918;2023-08-17T06:09:05;11.57;;;9.95;;
40591;SDS011;26301;42.832;23.918;2023-08-17T06:11:32;13.15;;;10.40;;
40591;SDS011;26301;42.832;23.918;2023-08-17T06:13:58;13.07;;;10.02;;
40591;SDS011;26301;42.832;23.918;2023-08-17T06:16:24;12.15;;;9.55;;
40591;SDS011;26301;42.832;23.918;2023-08-17T06:18:49;11.43;;;9.25;;
40591;SDS011;26301;42.832;23.918;2023-08-17T06:21:15;13.57;;;10.02;;
40591;SDS011;26301;42.832;23.918;2023-08-17T06:23:41;12.05;;;9.98;;
40591;SDS011;26301;42.832;23.918;2023-08-17T06:26:07;10.88;;;9.77;;
40591;SDS011;26301;42.832;23.918;2023-08-17T06:28:39;13.70;;;9.63;;
40591;SDS011;26301;42.832;23.918;2023-08-17T06:33:30;13.00;;;8.82;;
40591;SDS011;26301;42.832;23.918;2023-08-17T06:35:56;14.05;;;9.45;;
40591;SDS011;26301;42.832;23.918;2023-08-17T06:38:22;10.70;;;8.95;;
40591;SDS011;26301;42.832;23.918;2023-08-17T06:40:47;12.45;;;8.77;;
40591;SDS011;26301;42.832;23.918;2023-08-17T06:43:13;13.82;;;8.13;;
40591;SDS011;26301;42.832;23.918;2023-08-17T06:45:39;13.98;;;8.20;;
40591;SDS011;26301;42.832;23.918;2023-08-17T06:48:04;11.13;;;8.38;;
40591;SDS011;26301;42.832;23.918;2023-08-17T06:50:31;11.48;;;8.07;;
40591;SDS011;26301;42.832;23.918;2023-08-17T06:52:56;10.30;;;7.97;;
40591;SDS011;26301;42.832;23.918;2023-08-17T06:55:22;11.02;;;7.82;;
40591;SDS011;26301;42.832;23.918;2023-08-17T06:57:48;11.55;;;7.93;;
40591;SDS011;26301;42.832;23.918;2023-08-17T07:00:20;11.25;;;7.97;;
40591;SDS011;26301;42.832;23.918;2023-08-17T07:02:46;13.48;;;8.55;;
40591;SDS011;26301;42.832;23.918;2023-08-17T07:05:16;16.77;;;8.75;;
40591;SDS011;26301;42.832;23.918;2023-08-17T07:07:43;10.15;;;7.32;;
40591;SDS011;26301;42.832;23.918;2023-08-17T07:10:09;10.63;;;7.55;;
40591;SDS011;26301;42.832;23.918;2023-08-17T07:12:44;12.52;;;7.65;;
40591;SDS011;26301;42.832;23.918;2023-08-17T07:15:10;11.30;;;8.15;;
40591;SDS011;26301;42.832;23.918;2023-08-17T07:17:37;9.25;;;7.80;;
40591;SDS011;26301;42.832;23.918;2023-08-17T07:20:04;8.85;;;7.32;;
40591;SDS011;26301;42.832;23.918;2023-08-17T07:22:32;9.63;;;7.85;;
40591;SDS011;26301;42.832;23.918;2023-08-17T07:24:58;8.00;;;7.18;;
40591;SDS011;26301;42.832;23.918;2023-08-17T07:27:24;8.18;;;7.35;;
40591;SDS011;26301;42.832;23.918;2023-08-17T07:29:50;10.93;;;7.63;;
40591;SDS011;26301;42.832;23.918;2023-08-17T07:32:19;16.48;;;7.68;;
40591;SDS011;26301;42.832;23.918;2023-08-17T07:34:46;12.63;;;6.53;;
40591;SDS011;26301;42.832;23.918;2023-08-17T07:37:12;9.27;;;7.30;;
40591;SDS011;26301;42.832;23.918;2023-08-17T07:39:38;14.73;;;8.05;;
40591;SDS011;26301;42.832;23.918;2023-08-17T07:42:04;11.25;;;7.40;;
40591;SDS011;26301;42.832;23.918;2023-08-17T07:44:29;10.45;;;7.80;;
40591;SDS011;26301;42.832;23.918;2023-08-17T07:46:57;9.25;;;7.00;;
40591;SDS011;26301;42.832;23.918;2023-08-17T07:49:24;12.40;;;7.88;;
40591;SDS011;26301;42.832;23.918;2023-08-17T07:51:50;11.48;;;7.28;;
40591;SDS011;26301;42.832;23.918;2023-08-17T07:54:15;11.77;;;8.10;;
40591;SDS011;26301;42.832;23.918;2023-08-17T07:56:41;9.50;;;6.93;;
40591;SDS011;26301;42.832;23.918;2023-08-17T07:59:07;11.98;;;7.10;;
40591;SDS011;26301;42.832;23.918;2023-08-17T08:01:33;13.10;;;7.65;;
40591;SDS011;26301;42.832;23.918;2023-08-17T08:03:59;9.23;;;6.28;;
40591;SDS011;26301;42.832;23.918;2023-08-17T08:06:27;8.25;;;6.80;;
40591;SDS011;26301;42.832;23.918;2023-08-17T08:08:52;10.32;;;7.40;;
40591;SDS011;26301;42.832;23.918;2023-08-17T08:11:18;10.00;;;6.40;;
40591;SDS011;26301;42.832;23.918;2023-08-17T08:13:47;10.65;;;6.65;;
40591;SDS011;26301;42.832;23.918;2023-08-17T08:16:13;8.50;;;6.93;;
40591;SDS011;26301;42.832;23.918;2023-08-17T08:18:38;7.68;;;5.80;;
40591;SDS011;26301;42.832;23.918;2023-08-17T08:21:04;6.75;;;5.82;;
40591;SDS011;26301;42.832;23.918;2023-08-17T08:23:30;9.40;;;5.80;;
40591;SDS011;26301;42.832;23.918;2023-08-17T08:25:56;8.70;;;6.07;;
40591;SDS011;26301;42.832;23.918;2023-08-17T08:28:23;8.27;;;5.70;;
40591;SDS011;26301;42.832;23.918;2023-08-17T08:30:50;7.00;;;5.75;;
40591;SDS011;26301;42.832;23.918;2023-08-17T08:33:16;9.10;;;5.55;;
40591;SDS011;26301;42.832;23.918;2023-08-17T08:35:44;11.07;;;6.43;;
40591;SDS011;26301;42.832;23.918;2023-08-17T08:38:11;8.85;;;5.82;;
40591;SDS011;26301;42.832;23.918;2023-08-17T08:40:42;7.38;;;5.82;;
40591;SDS011;26301;42.832;23.918;2023-08-17T08:43:11;9.85;;;5.85;;
40591;SDS011;26301;42.832;23.918;2023-08-17T08:45:37;7.70;;;5.60;;
40591;SDS011;26301;42.832;23.918;2023-08-17T08:48:03;15.25;;;6.50;;
40591;SDS011;26301;42.832;23.918;2023-08-17T08:50:31;12.63;;;6.07;;
40591;SDS011;26301;42.832;23.918;2023-08-17T08:53:00;7.15;;;5.78;;
40591;SDS011;26301;42.832;23.918;2023-08-17T08:55:37;9.32;;;6.05;;
40591;SDS011;26301;42.832;23.918;2023-08-17T08:58:04;7.05;;;6.05;;
40591;SDS011;26301;42.832;23.918;2023-08-17T09:00:30;6.95;;;5.75;;
40591;SDS011;26301;42.832;23.918;2023-08-17T09:02:58;8.13;;;6.15;;
40591;SDS011;26301;42.832;23.918;2023-08-17T09:05:24;11.73;;;6.55;;
40591;SDS011;26301;42.832;23.918;2023-08-17T09:07:51;10.57;;;5.65;;
40591;SDS011;26301;42.832;23.918;2023-08-17T09:10:17;8.25;;;5.60;;
40591;SDS011;26301;42.832;23.918;2023-08-17T09:12:44;8.60;;;5.60;;
40591;SDS011;26301;42.832;23.918;2023-08-17T09:15:11;7.95;;;5.55;;
40591;SDS011;26301;42.832;23.918;2023-08-17T09:17:40;8.48;;;5.22;;
40591;SDS011;26301;42.832;23.918;2023-08-17T09:20:17;9.15;;;5.60;;
40591;SDS011;26301;42.832;23.918;2023-08-17T09:23:17;8.85;;;5.80;;
40591;SDS011;26301;42.832;23.918;2023-08-17T09:25:45;11.25;;;5.75;;
40591;SDS011;26301;42.832;23.918;2023-08-17T09:28:13;12.65;;;5.38;;
40591;SDS011;26301;42.832;23.918;2023-08-17T09:33:16;11.57;;;5.90;;
40591;SDS011;26301;42.832;23.918;2023-08-17T09:35:42;7.20;;;5.68;;
40591;SDS011;26301;42.832;23.918;2023-08-17T09:38:08;8.88;;;5.90;;
40591;SDS011;26301;42.832;23.918;2023-08-17T09:40:36;7.53;;;5.05;;
40591;SDS011;26301;42.832;23.918;2023-08-17T09:43:08;7.63;;;5.25;;
40591;SDS011;26301;42.832;23.918;2023-08-17T09:45:35;10.02;;;5.72;;
40591;SDS011;26301;42.832;23.918;2023-08-17T09:48:01;8.18;;;5.10;;
40591;SDS011;26301;42.832;23.918;2023-08-17T09:50:26;8.57;;;5.05;;
40591;SDS011;26301;42.832;23.918;2023-08-17T09:52:52;6.93;;;5.30;;
40591;SDS011;26301;42.832;23.918;2023-08-17T09:55:20;9.57;;;5.20;;
40591;SDS011;26301;42.832;23.918;2023-08-17T09:57:48;9.10;;;4.95;;
40591;SDS011;26301;42.832;23.918;2023-08-17T10:00:15;6.15;;;4.63;;
40591;SDS011;26301;42.832;23.918;2023-08-17T10:02:42;6.82;;;5.15;;
40591;SDS011;26301;42.832;23.918;2023-08-17T10:05:11;6.90;;;4.68;;
40591;SDS011;26301;42.832;23.918;2023-08-17T10:07:38;9.80;;;4.70;;
40591;SDS011;26301;42.832;23.918;2023-08-17T10:10:09;9.32;;;5.07;;
40591;SDS011;26301;42.832;23.918;2023-08-17T10:12:36;6.63;;;4.88;;
40591;SDS011;26301;42.832;23.918;2023-08-17T10:15:07;7.75;;;4.90;;
40591;SDS011;26301;42.832;23.918;2023-08-17T10:17:37;10.77;;;5.45;;
40591;SDS011;26301;42.832;23.918;2023-08-17T10:20:12;7.85;;;4.75;;
40591;SDS011;26301;42.832;23.918;2023-08-17T10:22:40;10.00;;;5.13;;
40591;SDS011;26301;42.832;23.918;2023-08-17T10:25:14;8.68;;;4.88;;
40591;SDS011;26301;42.832;23.918;2023-08-17T10:27:41;8.02;;;4.40;;
40591;SDS011;26301;42.832;23.918;2023-08-17T10:30:08;6.80;;;4.72;;
40591;SDS011;26301;42.832;23.918;2023-08-17T10:32:35;9.27;;;4.50;;
40591;SDS011;26301;42.832;23.918;2023-08-17T10:35:10;6.15;;;4.22;;
40591;SDS011;26301;42.832;23.918;2023-08-17T10:37:36;15.43;;;5.10;;
40591;SDS011;26301;42.832;23.918;2023-08-17T10:40:06;8.35;;;5.00;;
40591;SDS011;26301;42.832;23.918;2023-08-17T10:42:35;8.40;;;5.30;;
40591;SDS011;26301;42.832;23.918;2023-08-17T10:45:24;9.80;;;4.82;;
40591;SDS011;26301;42.832;23.918;2023-08-17T10:47:47;6.72;;;4.75;;
40591;SDS011;26301;42.832;23.918;2023-08-17T10:50:23;7.63;;;4.45;;
40591;SDS011;26301;42.832;23.918;2023-08-17T10:52:50;6.43;;;4.55;;
40591;SDS011;26301;42.832;23.918;2023-08-17T10:55:37;8.95;;;4.70;;
40591;SDS011;26301;42.832;23.918;2023-08-17T10:58:09;5.60;;;4.13;;
40591;SDS011;26301;42.832;23.918;2023-08-17T11:00:38;7.20;;;4.03;;
40591;SDS011;26301;42.832;23.918;2023-08-17T11:03:08;9.32;;;4.30;;
40591;SDS011;26301;42.832;23.918;2023-08-17T11:08:31;10.90;;;4.53;;
40591;SDS011;26301;42.832;23.918;2023-08-17T11:13:35;6.18;;;4.20;;
40591;SDS011;26301;42.832;23.918;2023-08-17T11:16:03;5.60;;;3.53;;
40591;SDS011;26301;42.832;23.918;2023-08-17T11:18:29;5.90;;;4.05;;
40591;SDS011;26301;42.832;23.918;2023-08-17T11:20:56;7.10;;;3.42;;
40591;SDS011;26301;42.832;23.918;2023-08-17T11:23:24;6.38;;;4.07;;
40591;SDS011;26301;42.832;23.918;2023-08-17T11:25:54;9.07;;;3.83;;
40591;SDS011;26301;42.832;23.918;2023-08-17T11:28:20;6.20;;;4.07;;
40591;SDS011;26301;42.832;23.918;2023-08-17T11:30:56;6.95;;;3.90;;
40591;SDS011;26301;42.832;23.918;2023-08-17T11:33:28;9.75;;;3.80;;
40591;SDS011;26301;42.832;23.918;2023-08-17T11:35:58;7.90;;;4.00;;
40591;SDS011;26301;42.832;23.918;2023-08-17T11:38:26;7.13;;;3.90;;
40591;SDS011;26301;42.832;23.918;2023-08-17T11:40:55;8.65;;;4.00;;
40591;SDS011;26301;42.832;23.918;2023-08-17T11:43:23;5.55;;;3.20;;
40591;SDS011;26301;42.832;23.918;2023-08-17T11:45:49;5.05;;;3.63;;
40591;SDS011;26301;42.832;23.918;2023-08-17T11:48:18;6.97;;;3.70;;
40591;SDS011;26301;42.832;23.918;2023-08-17T11:50:44;5.43;;;3.58;;
40591;SDS011;26301;42.832;23.918;2023-08-17T11:53:10;5.38;;;2.90;;
40591;SDS011;26301;42.832;23.918;2023-08-17T11:55:38;8.02;;;3.83;;
40591;SDS011;26301;42.832;23.918;2023-08-17T11:58:04;6.95;;;3.13;;
40591;SDS011;26301;42.832;23.918;2023-08-17T12:00:34;6.18;;;3.63;;
40591;SDS011;26301;42.832;23.918;2023-08-17T12:03:02;5.40;;;3.30;;
40591;SDS011;26301;42.832;23.918;2023-08-17T12:05:30;8.20;;;3.33;;
40591;SDS011;26301;42.832;23.918;2023-08-17T12:07:57;4.20;;;3.28;;
40591;SDS011;26301;42.832;23.918;2023-08-17T12:10:24;10.20;;;3.47;;
40591;SDS011;26301;42.832;23.918;2023-08-17T12:12:52;6.20;;;3.30;;
40591;SDS011;26301;42.832;23.918;2023-08-17T12:15:18;8.15;;;3.10;;
40591;SDS011;26301;42.832;23.918;2023-08-17T12:17:47;5.82;;;3.15;;
40591;SDS011;26301;42.832;23.918;2023-08-17T12:20:20;6.82;;;3.60;;
40591;SDS011;26301;42.832;23.918;2023-08-17T12:25:15;8.02;;;3.35;;
40591;SDS011;26301;42.832;23.918;2023-08-17T12:27:40;5.50;;;3.05;;
40591;SDS011;26301;42.832;23.918;2023-08-17T12:30:13;8.23;;;3.47;;
40591;SDS011;26301;42.832;23.918;2023-08-17T12:32:51;4.90;;;2.75;;
40591;SDS011;26301;42.832;23.918;2023-08-17T12:35:17;6.10;;;3.13;;
40591;SDS011;26301;42.832;23.918;2023-08-17T12:37:44;4.88;;;2.97;;
40591;SDS011;26301;42.832;23.918;2023-08-17T12:40:10;4.10;;;2.63;;
40591;SDS011;26301;42.832;23.918;2023-08-17T12:42:36;8.25;;;3.28;;
40591;SDS011;26301;42.832;23.918;2023-08-17T12:45:01;4.85;;;2.80;;
40591;SDS011;26301;42.832;23.918;2023-08-17T12:47:27;4.18;;;2.70;;
40591;SDS011;26301;42.832;23.918;2023-08-17T12:49:52;9.70;;;2.83;;
40591;SDS011;26301;42.832;23.918;2023-08-17T12:52:21;5.07;;;2.90;;
40591;SDS011;26301;42.832;23.918;2023-08-17T12:54:47;5.78;;;3.13;;
40591;SDS011;26301;42.832;23.918;2023-08-17T12:57:14;5.28;;;3.28;;
40591;SDS011;26301;42.832;23.918;2023-08-17T12:59:40;5.13;;;2.95;;
40591;SDS011;26301;42.832;23.918;2023-08-17T13:02:06;5.93;;;2.80;;
40591;SDS011;26301;42.832;23.918;2023-08-17T13:04:32;4.45;;;2.53;;
40591;SDS011;26301;42.832;23.918;2023-08-17T13:06:58;5.90;;;2.72;;
40591;SDS011;26301;42.832;23.918;2023-08-17T13:09:26;4.93;;;2.85;;
40591;SDS011;26301;42.832;23.918;2023-08-17T13:11:54;4.95;;;3.10;;
40591;SDS011;26301;42.832;23.918;2023-08-17T13:14:20;5.97;;;2.53;;
40591;SDS011;26301;42.832;23.918;2023-08-17T13:16:48;3.78;;;3.05;;
40591;SDS011;26301;42.832;23.918;2023-08-17T13:19:14;5.95;;;2.67;;
40591;SDS011;26301;42.832;23.918;2023-08-17T13:21:40;6.65;;;2.78;;
40591;SDS011;26301;42.832;23.918;2023-08-17T13:24:06;4.82;;;2.65;;
40591;SDS011;26301;42.832;23.918;2023-08-17T13:26:31;7.20;;;2.80;;
40591;SDS011;26301;42.832;23.918;2023-08-17T13:29:01;5.82;;;2.78;;
40591;SDS011;26301;42.832;23.918;2023-08-17T13:31:26;7.00;;;2.95;;
40591;SDS011;26301;42.832;23.918;2023-08-17T13:33:52;7.18;;;2.83;;
40591;SDS011;26301;42.832;23.918;2023-08-17T13:36:18;4.90;;;2.92;;
40591;SDS011;26301;42.832;23.918;2023-08-17T13:38:44;5.57;;;2.28;;
40591;SDS011;26301;42.832;23.918;2023-08-17T13:41:10;3.65;;;2.63;;
40591;SDS011;26301;42.832;23.918;2023-08-17T13:43:36;5.43;;;2.78;;
40591;SDS011;26301;42.832;23.918;2023-08-17T13:46:02;6.35;;;3.25;;
40591;SDS011;26301;42.832;23.918;2023-08-17T13:48:28;7.25;;;2.70;;
40591;SDS011;26301;42.832;23.918;2023-08-17T13:50:53;5.05;;;3.22;;
40591;SDS011;26301;42.832;23.918;2023-08-17T13:53:19;6.50;;;3.30;;
40591;SDS011;26301;42.832;23.918;2023-08-17T13:55:45;5.78;;;2.90;;
40591;SDS011;26301;42.832;23.918;2023-08-17T13:58:11;5.32;;;2.90;;
40591;SDS011;26301;42.832;23.918;2023-08-17T14:00:42;4.43;;;2.90;;
40591;SDS011;26301;42.832;23.918;2023-08-17T14:03:08;6.38;;;3.00;;
40591;SDS011;26301;42.832;23.918;2023-08-17T14:05:33;3.25;;;2.55;;
40591;SDS011;26301;42.832;23.918;2023-08-17T14:08:00;6.35;;;2.90;;
40591;SDS011;26301;42.832;23.918;2023-08-17T14:10:25;5.32;;;3.00;;
40591;SDS011;26301;42.832;23.918;2023-08-17T14:12:51;5.15;;;3.13;;
40591;SDS011;26301;42.832;23.918;2023-08-17T14:15:17;4.72;;;2.90;;
40591;SDS011;26301;42.832;23.918;2023-08-17T14:17:42;6.57;;;3.00;;
40591;SDS011;26301;42.832;23.918;2023-08-17T14:20:08;5.30;;;2.97;;
40591;SDS011;26301;42.832;23.918;2023-08-17T14:22:34;8.18;;;2.83;;
40591;SDS011;26301;42.832;23.918;2023-08-17T14:25:00;7.50;;;3.05;;
40591;SDS011;26301;42.832;23.918;2023-08-17T14:27:25;7.15;;;3.00;;
40591;SDS011;26301;42.832;23.918;2023-08-17T14:29:51;7.15;;;2.83;;
40591;SDS011;26301;42.832;23.918;2023-08-17T14:32:16;6.57;;;3.00;;
40591;SDS011;26301;42.832;23.918;2023-08-17T14:34:42;6.93;;;3.10;;
40591;SDS011;26301;42.832;23.918;2023-08-17T14:37:08;3.92;;;2.70;;
40591;SDS011;26301;42.832;23.918;2023-08-17T14:39:33;5.03;;;2.80;;
40591;SDS011;26301;42.832;23.918;2023-08-17T14:41:59;4.25;;;2.65;;